• Join FlightAware (Why Join?)
  • Login
  • US Flag 
10:21AM EDT


 

Airport Tracker/Info


-or-


 

Live Flight TrackerFlight Track Log ✈ EJA131 ✈ 28-Apr-2013 ✈ KCLT - CYYZ

Flight Track Log - Related Links

Times and Time Zones

All times are in EDT time to prevent confusion due to time zone crossing. See the EJA131 flight status page for this flight to view local times or setup timezone preferences in your user account.

Time Position Orientation Groundspeed Altitude Reporting Facility
EDT Latitude Longitude Course Direction KTS MPH feet Rate Location/Type
01:58PM 35.2269 -80.9572 336° Northwest 171 197 1,500  Level Atlanta Center
01:59PM 35.2669 -80.9786 336° Northwest 226 260 3,300 2,580 Climbing Atlanta Center
02:00PM 35.3592 -80.9981 350° North 273 314 6,700 2,880 Climbing Atlanta Center
02:01PM 35.4464 -80.9719 14° North 294 338 9,900 3,060 Climbing Atlanta Center
02:02PM 35.5353 -80.9431 15° North 318 366 12,900 2,820 Climbing Atlanta Center
02:03PM 35.6306 -80.9139 14° North 334 384 15,600 2,400 Climbing Atlanta Center
02:04PM 35.7278 -80.8872 13° North 350 403 17,800 2,100 Climbing Atlanta Center
02:05PM 35.8275 -80.8731 North 357 411 19,900 1,860 Climbing Atlanta Center
02:06PM 35.9336 -80.8611 North 368 423 21,600 1,680 Climbing Atlanta Center
02:07PM 36.0417 -80.8467 North 381 438 23,300 1,680 Climbing Atlanta Center
02:08PM 36.1500 -80.8322 North 387 445 25,000 1,560 Climbing Atlanta Center
02:09PM 36.2581 -80.8175 North 387 445 26,500 1,500 Climbing Atlanta Center
02:10PM 36.3681 -80.8028 North 392 451 28,000 1,200 Climbing Atlanta Center
02:11PM 36.4783 -80.7908 North 392 451 29,000 900 Climbing Atlanta Center
02:12PM 36.5947 -80.7756 North 405 466 29,800 780 Climbing Atlanta Center
02:13PM 36.6964 -80.7611 North 410 472 30,600 900 Climbing Atlanta Center
02:14PM 36.8089 -80.7514 North 404 465 31,700 1,020 Climbing Atlanta Center
02:16PM 37.0603 -80.7181 North 420 483 33,800 960 Climbing Indianapolis Center
02:17PM 37.0875 -80.7186 359° North 409 471 34,000 900 Climbing Washington Center
02:18PM 37.1853 -80.7225 358° North 404 465 35,000 480 Climbing Washington Center
02:19PM 37.3019 -80.7250 359° North 404 465 35,000  Level Washington Center
02:20PM 37.4208 -80.7281 359° North 409 471 35,000  Level Washington Center
02:22PM 37.6689 -80.7333 359° North 453 521 35,000  Level Indianapolis Center
02:23PM 37.7953 -80.7375 359° North 462 532 35,000  Level Indianapolis Center
02:24PM 37.9219 -80.7417 359° North 465 535 35,000  Level Indianapolis Center
02:25PM 38.0533 -80.7467 358° North 469 540 35,000  Level Indianapolis Center
02:26PM 38.2117 -80.7519 358° North 474 545 35,000  Level Indianapolis Center
02:27PM 38.3439 -80.7561 359° North 476 548 35,000  Level Indianapolis Center
02:28PM 38.4772 -80.7619 358° North 480 552 35,000  Level Indianapolis Center
02:29PM 38.6097 -80.7656 359° North 481 554 35,000  Level Indianapolis Center
02:30PM 38.7444 -80.7711 358° North 484 557 35,000  Level Indianapolis Center
02:31PM 38.8781 -80.7750 359° North 484 557 35,000  Level Indianapolis Center
02:32PM 39.0406 -80.7803 359° North 485 558 35,000  Level Indianapolis Center
02:33PM 39.1758 -80.7856 358° North 486 559 35,000  Level Indianapolis Center
02:34PM 39.3103 -80.7897 359° North 488 562 35,000  Level Indianapolis Center
02:35PM 39.4439 -80.7950 358° North 483 556 35,000  Level Indianapolis Center
02:36PM 39.5794 -80.8003 358° North 485 558 35,000  Level Indianapolis Center
02:37PM 39.6875 -80.8042 358° North 480 552 35,000  Level Cleveland Center
02:38PM 39.8208 -80.8100 358° North 480 552 35,000  Level Cleveland Center
02:39PM 39.9564 -80.8133 359° North 480 552 35,000  Level Cleveland Center
02:40PM 40.0919 -80.8083 North 480 552 35,000  Level Cleveland Center
02:41PM 40.2294 -80.7925 North 480 552 35,000  Level Cleveland Center
02:42PM 40.3381 -80.7819 North 480 552 35,000  Level Cleveland Center
02:43PM 40.4881 -80.7661 North 480 552 35,000  Level Cleveland Center
02:44PM 40.6258 -80.7500 North 485 558 35,000  Level Cleveland Center
02:45PM 40.7653 -80.7367 North 490 564 35,000  Level Cleveland Center
02:46PM 40.9008 -80.7206 North 495 570 35,000  Level Cleveland Center
02:47PM 41.0386 -80.7097 North 495 570 35,000 -240 Level Cleveland Center
02:48PM 41.1761 -80.6908 North 500 575 34,600 -540 Descending Cleveland Center
02:49PM 41.3178 -80.6772 North 505 581 34,000 -300 Descending Cleveland Center
02:50PM 41.4575 -80.6939 355° North 500 575 34,000  Level Cleveland Center
02:51PM 41.5931 -80.7081 356° North 494 568 34,000  Level Cleveland Center
02:52PM 41.7306 -80.6528 17° North 499 574 34,000 -480 Level Cleveland Center
02:53PM 41.8453 -80.5386 37° Northeast 502 578 33,100 -1,020 Descending Cleveland Center
02:54PM 41.9619 -80.3989 42° Northeast 497 572 32,000 -1,140 Descending Cleveland Center
02:55PM 42.0658 -80.2728 42° Northeast 500 575 30,900 -1,200 Descending Cleveland Center
02:56PM 42.1697 -80.1433 43° Northeast 500 575 29,700 -1,440 Descending Cleveland Center
02:57PM 42.2650 -80.0247 43° Northeast 481 554 28,100 -1,560 Descending Cleveland Center
02:58PM 42.3478 -79.9258 41° Northeast 454 522 26,600 -1,500 Descending Cleveland Center
02:59PM 42.4347 -79.8153 43° Northeast 434 499 25,100 -1,500 Descending Cleveland Center
03:00PM 42.5297 -79.6986 42° Northeast 441 507 23,700 -1,560 Descending Cleveland Center
03:01PM 42.6225 -79.5786 44° Northeast 447 514 22,000 -1,680 Descending Cleveland Center
03:02PM 42.7133 -79.4642 43° Northeast 447 514 20,400 -1,560 Descending Cleveland Center
03:03PM 42.7936 -79.3667 42° Northeast 420 483 18,900 -1,500 Descending Cleveland Center
03:04PM 42.8889 -79.3167 21° North 380 437 17,400 -1,680 Descending Cleveland Center
03:04PM 42.9333 -79.3000 15° North 370 426 16,500 -2,040 Descending Toronto Center